sensor_id;sensor_type;location;lat;lon;timestamp;pressure;altitude;pressure_sealevel;temperature;humidity
55277;BME280;41136;51.478;-2.610;2023-12-20T00:02:22;101489.62;;;5.92;100.00
55277;BME280;41136;51.478;-2.610;2023-12-20T00:04:47;101477.55;;;6.46;100.00
55277;BME280;41136;51.478;-2.610;2023-12-20T00:07:13;101477.03;;;6.67;100.00
55277;BME280;41136;51.478;-2.610;2023-12-20T00:09:38;101473.27;;;6.79;100.00
55277;BME280;41136;51.478;-2.610;2023-12-20T00:12:05;101467.05;;;6.40;100.00
55277;BME280;41136;51.478;-2.610;2023-12-20T00:14:29;101459.29;;;6.35;100.00
55277;BME280;41136;51.478;-2.610;2023-12-20T00:16:55;101461.09;;;5.91;100.00
55277;BME280;41136;51.478;-2.610;2023-12-20T00:19:20;101460.29;;;6.12;100.00
55277;BME280;41136;51.478;-2.610;2023-12-20T00:21:46;101458.67;;;7.07;100.00
55277;BME280;41136;51.478;-2.610;2023-12-20T00:24:11;101456.19;;;7.29;100.00
55277;BME280;41136;51.478;-2.610;2023-12-20T00:26:36;101458.86;;;6.78;100.00
55277;BME280;41136;51.478;-2.610;2023-12-20T00:29:02;101455.09;;;6.94;100.00
55277;BME280;41136;51.478;-2.610;2023-12-20T00:31:27;101446.04;;;6.94;100.00
55277;BME280;41136;51.478;-2.610;2023-12-20T00:33:53;101446.57;;;6.59;100.00
55277;BME280;41136;51.478;-2.610;2023-12-20T00:36:18;101442.50;;;6.95;100.00
55277;BME280;41136;51.478;-2.610;2023-12-20T00:38:43;101435.76;;;6.68;100.00
55277;BME280;41136;51.478;-2.610;2023-12-20T00:41:08;101434.17;;;6.04;100.00
55277;BME280;41136;51.478;-2.610;2023-12-20T00:43:34;101437.13;;;6.34;100.00
55277;BME280;41136;51.478;-2.610;2023-12-20T00:45:59;101445.71;;;6.48;100.00
55277;BME280;41136;51.478;-2.610;2023-12-20T00:48:25;101449.71;;;6.59;100.00
55277;BME280;41136;51.478;-2.610;2023-12-20T00:50:50;101455.19;;;6.61;100.00
55277;BME280;41136;51.478;-2.610;2023-12-20T00:53:15;101456.50;;;6.68;100.00
55277;BME280;41136;51.478;-2.610;2023-12-20T00:55:41;101455.29;;;7.09;100.00
55277;BME280;41136;51.478;-2.610;2023-12-20T00:58:06;101452.07;;;7.36;100.00
55277;BME280;41136;51.478;-2.610;2023-12-20T01:00:32;101451.41;;;6.66;100.00
55277;BME280;41136;51.478;-2.610;2023-12-20T01:02:57;101441.56;;;7.11;100.00
55277;BME280;41136;51.478;-2.610;2023-12-20T01:05:22;101443.69;;;6.67;100.00
55277;BME280;41136;51.478;-2.610;2023-12-20T01:07:48;101444.20;;;6.46;100.00
55277;BME280;41136;51.478;-2.610;2023-12-20T01:10:13;101441.09;;;5.93;100.00
55277;BME280;41136;51.478;-2.610;2023-12-20T01:12:38;101443.46;;;6.43;100.00
55277;BME280;41136;51.478;-2.610;2023-12-20T01:15:05;101444.74;;;6.45;100.00
55277;BME280;41136;51.478;-2.610;2023-12-20T01:17:29;101441.59;;;6.19;100.00
55277;BME280;41136;51.478;-2.610;2023-12-20T01:19:55;101443.89;;;5.76;100.00
55277;BME280;41136;51.478;-2.610;2023-12-20T01:22:20;101437.89;;;5.58;100.00
55277;BME280;41136;51.478;-2.610;2023-12-20T01:24:46;101441.44;;;5.53;100.00
55277;BME280;41136;51.478;-2.610;2023-12-20T01:27:11;101441.61;;;5.24;100.00
55277;BME280;41136;51.478;-2.610;2023-12-20T01:29:37;101445.69;;;5.16;100.00
55277;BME280;41136;51.478;-2.610;2023-12-20T01:32:02;101449.14;;;4.94;100.00
55277;BME280;41136;51.478;-2.610;2023-12-20T01:34:27;101448.92;;;4.78;100.00
55277;BME280;41136;51.478;-2.610;2023-12-20T01:36:53;101445.22;;;5.16;100.00
55277;BME280;41136;51.478;-2.610;2023-12-20T01:39:18;101436.93;;;5.34;100.00
55277;BME280;41136;51.478;-2.610;2023-12-20T01:41:44;101436.71;;;4.91;100.00
55277;BME280;41136;51.478;-2.610;2023-12-20T01:44:09;101431.53;;;5.21;100.00
55277;BME280;41136;51.478;-2.610;2023-12-20T01:46:34;101428.23;;;5.39;100.00
55277;BME280;41136;51.478;-2.610;2023-12-20T01:49:00;101430.42;;;5.61;100.00
55277;BME280;41136;51.478;-2.610;2023-12-20T01:51:26;101439.76;;;5.39;100.00
55277;BME280;41136;51.478;-2.610;2023-12-20T01:53:51;101435.41;;;5.01;100.00
55277;BME280;41136;51.478;-2.610;2023-12-20T01:56:17;101434.58;;;5.29;100.00
55277;BME280;41136;51.478;-2.610;2023-12-20T01:58:44;101437.95;;;5.19;100.00
55277;BME280;41136;51.478;-2.610;2023-12-20T02:01:07;101436.58;;;5.07;100.00
55277;BME280;41136;51.478;-2.610;2023-12-20T02:03:33;101440.34;;;5.58;100.00
55277;BME280;41136;51.478;-2.610;2023-12-20T02:05:58;101439.46;;;5.58;100.00
55277;BME280;41136;51.478;-2.610;2023-12-20T02:08:23;101444.98;;;5.47;100.00
55277;BME280;41136;51.478;-2.610;2023-12-20T02:10:48;101442.65;;;5.43;100.00
55277;BME280;41136;51.478;-2.610;2023-12-20T02:13:14;101434.97;;;5.35;100.00
55277;BME280;41136;51.478;-2.610;2023-12-20T02:15:39;101432.14;;;5.06;100.00
55277;BME280;41136;51.478;-2.610;2023-12-20T02:18:05;101422.70;;;5.14;100.00
55277;BME280;41136;51.478;-2.610;2023-12-20T02:20:30;101417.17;;;4.88;100.00
55277;BME280;41136;51.478;-2.610;2023-12-20T02:22:55;101419.57;;;4.77;100.00
55277;BME280;41136;51.478;-2.610;2023-12-20T02:25:21;101420.67;;;5.09;100.00
55277;BME280;41136;51.478;-2.610;2023-12-20T02:27:46;101416.49;;;5.24;100.00
55277;BME280;41136;51.478;-2.610;2023-12-20T02:30:11;101417.46;;;5.09;100.00
55277;BME280;41136;51.478;-2.610;2023-12-20T02:32:37;101412.64;;;5.16;100.00
55277;BME280;41136;51.478;-2.610;2023-12-20T02:35:02;101410.13;;;5.86;100.00
55277;BME280;41136;51.478;-2.610;2023-12-20T02:37:28;101413.71;;;5.86;100.00
55277;BME280;41136;51.478;-2.610;2023-12-20T02:39:53;101417.00;;;5.30;100.00
55277;BME280;41136;51.478;-2.610;2023-12-20T02:42:18;101409.84;;;5.53;100.00
55277;BME280;41136;51.478;-2.610;2023-12-20T02:44:44;101414.16;;;5.61;100.00
55277;BME280;41136;51.478;-2.610;2023-12-20T02:47:09;101410.10;;;5.40;100.00
55277;BME280;41136;51.478;-2.610;2023-12-20T02:49:34;101409.28;;;5.67;100.00
55277;BME280;41136;51.478;-2.610;2023-12-20T02:52:00;101413.73;;;5.87;100.00
55277;BME280;41136;51.478;-2.610;2023-12-20T02:54:25;101411.65;;;5.75;100.00
55277;BME280;41136;51.478;-2.610;2023-12-20T02:56:51;101415.24;;;6.33;100.00
55277;BME280;41136;51.478;-2.610;2023-12-20T02:59:16;101414.85;;;5.68;100.00
55277;BME280;41136;51.478;-2.610;2023-12-20T03:01:43;101416.77;;;5.81;100.00
55277;BME280;41136;51.478;-2.610;2023-12-20T03:04:07;101424.05;;;6.44;100.00
55277;BME280;41136;51.478;-2.610;2023-12-20T03:06:32;101426.19;;;5.91;100.00
55277;BME280;41136;51.478;-2.610;2023-12-20T03:08:57;101420.53;;;6.63;100.00
55277;BME280;41136;51.478;-2.610;2023-12-20T03:11:26;101419.66;;;6.17;100.00
55277;BME280;41136;51.478;-2.610;2023-12-20T03:13:48;101420.43;;;6.22;100.00
55277;BME280;41136;51.478;-2.610;2023-12-20T03:16:13;101422.04;;;6.05;100.00
55277;BME280;41136;51.478;-2.610;2023-12-20T03:18:39;101427.69;;;5.91;100.00
55277;BME280;41136;51.478;-2.610;2023-12-20T03:21:04;101421.98;;;6.15;100.00
55277;BME280;41136;51.478;-2.610;2023-12-20T03:23:29;101420.31;;;6.25;100.00
55277;BME280;41136;51.478;-2.610;2023-12-20T03:25:55;101423.14;;;5.93;100.00
55277;BME280;41136;51.478;-2.610;2023-12-20T03:28:20;101420.03;;;6.05;100.00
55277;BME280;41136;51.478;-2.610;2023-12-20T03:30:45;101409.01;;;6.91;100.00
55277;BME280;41136;51.478;-2.610;2023-12-20T03:33:11;101398.87;;;6.53;100.00
55277;BME280;41136;51.478;-2.610;2023-12-20T03:35:36;101399.20;;;6.78;100.00
55277;BME280;41136;51.478;-2.610;2023-12-20T03:38:01;101403.94;;;6.66;100.00
55277;BME280;41136;51.478;-2.610;2023-12-20T03:40:27;101389.78;;;6.93;100.00
55277;BME280;41136;51.478;-2.610;2023-12-20T03:42:52;101389.25;;;6.71;100.00
55277;BME280;41136;51.478;-2.610;2023-12-20T03:45:17;101399.60;;;6.26;100.00
55277;BME280;41136;51.478;-2.610;2023-12-20T03:47:42;101403.86;;;6.27;100.00
55277;BME280;41136;51.478;-2.610;2023-12-20T03:50:08;101393.48;;;6.38;100.00
55277;BME280;41136;51.478;-2.610;2023-12-20T03:52:33;101396.18;;;6.33;100.00
55277;BME280;41136;51.478;-2.610;2023-12-20T03:54:58;101390.69;;;6.79;100.00
55277;BME280;41136;51.478;-2.610;2023-12-20T03:57:24;101382.68;;;6.84;100.00
55277;BME280;41136;51.478;-2.610;2023-12-20T03:59:49;101383.63;;;6.57;100.00
55277;BME280;41136;51.478;-2.610;2023-12-20T04:02:14;101389.67;;;6.77;100.00
55277;BME280;41136;51.478;-2.610;2023-12-20T04:04:40;101384.78;;;7.06;100.00
55277;BME280;41136;51.478;-2.610;2023-12-20T04:07:05;101385.43;;;6.93;100.00
55277;BME280;41136;51.478;-2.610;2023-12-20T04:09:30;101389.04;;;6.13;100.00
55277;BME280;41136;51.478;-2.610;2023-12-20T04:11:57;101392.13;;;6.74;100.00
55277;BME280;41136;51.478;-2.610;2023-12-20T04:14:21;101385.55;;;6.54;100.00
55277;BME280;41136;51.478;-2.610;2023-12-20T04:16:46;101380.97;;;6.28;100.00
55277;BME280;41136;51.478;-2.610;2023-12-20T04:19:12;101375.82;;;5.62;100.00
55277;BME280;41136;51.478;-2.610;2023-12-20T04:21:37;101376.57;;;5.97;100.00
55277;BME280;41136;51.478;-2.610;2023-12-20T04:24:03;101377.62;;;5.66;100.00
55277;BME280;41136;51.478;-2.610;2023-12-20T04:26:28;101378.14;;;5.90;100.00
55277;BME280;41136;51.478;-2.610;2023-12-20T04:28:53;101382.92;;;5.96;100.00
55277;BME280;41136;51.478;-2.610;2023-12-20T04:31:19;101378.51;;;5.48;100.00
55277;BME280;41136;51.478;-2.610;2023-12-20T04:33:44;101379.72;;;5.69;100.00
55277;BME280;41136;51.478;-2.610;2023-12-20T04:36:10;101376.84;;;6.54;100.00
55277;BME280;41136;51.478;-2.610;2023-12-20T04:38:35;101375.35;;;6.08;100.00
55277;BME280;41136;51.478;-2.610;2023-12-20T04:41:00;101372.01;;;6.39;100.00
55277;BME280;41136;51.478;-2.610;2023-12-20T04:43:25;101376.28;;;5.93;100.00
55277;BME280;41136;51.478;-2.610;2023-12-20T04:52:20;101364.17;;;5.96;100.00
55277;BME280;41136;51.478;-2.610;2023-12-20T04:54:45;101360.64;;;6.04;100.00
55277;BME280;41136;51.478;-2.610;2023-12-20T04:57:10;101363.67;;;6.67;100.00
55277;BME280;41136;51.478;-2.610;2023-12-20T04:59:36;101364.68;;;6.04;100.00
55277;BME280;41136;51.478;-2.610;2023-12-20T05:02:01;101360.43;;;6.58;100.00
55277;BME280;41136;51.478;-2.610;2023-12-20T05:04:26;101370.22;;;6.50;100.00
55277;BME280;41136;51.478;-2.610;2023-12-20T05:06:51;101367.88;;;6.88;100.00
55277;BME280;41136;51.478;-2.610;2023-12-20T05:09:17;101362.18;;;6.16;100.00
55277;BME280;41136;51.478;-2.610;2023-12-20T05:11:42;101367.13;;;6.28;100.00
55277;BME280;41136;51.478;-2.610;2023-12-20T05:14:07;101365.74;;;7.15;100.00
55277;BME280;41136;51.478;-2.610;2023-12-20T05:16:33;101366.48;;;6.79;100.00
55277;BME280;41136;51.478;-2.610;2023-12-20T05:18:58;101362.78;;;6.58;100.00
55277;BME280;41136;51.478;-2.610;2023-12-20T05:21:23;101356.80;;;6.61;100.00
55277;BME280;41136;51.478;-2.610;2023-12-20T05:23:49;101348.76;;;6.69;100.00
55277;BME280;41136;51.478;-2.610;2023-12-20T05:26:14;101344.92;;;6.13;100.00
55277;BME280;41136;51.478;-2.610;2023-12-20T05:28:40;101336.67;;;7.11;100.00
55277;BME280;41136;51.478;-2.610;2023-12-20T05:31:05;101331.45;;;6.68;100.00
55277;BME280;41136;51.478;-2.610;2023-12-20T05:33:30;101322.22;;;6.89;100.00
55277;BME280;41136;51.478;-2.610;2023-12-20T05:35:56;101322.37;;;6.38;100.00
55277;BME280;41136;51.478;-2.610;2023-12-20T05:38:21;101336.16;;;7.20;100.00
55277;BME280;41136;51.478;-2.610;2023-12-20T05:40:46;101338.32;;;7.88;100.00
55277;BME280;41136;51.478;-2.610;2023-12-20T05:43:12;101331.80;;;7.35;100.00
55277;BME280;41136;51.478;-2.610;2023-12-20T05:45:37;101327.92;;;7.57;100.00
55277;BME280;41136;51.478;-2.610;2023-12-20T05:48:03;101334.42;;;6.87;100.00
55277;BME280;41136;51.478;-2.610;2023-12-20T05:50:28;101338.73;;;7.45;100.00
55277;BME280;41136;51.478;-2.610;2023-12-20T05:52:53;101351.94;;;7.60;100.00
55277;BME280;41136;51.478;-2.610;2023-12-20T05:55:19;101352.62;;;7.31;100.00
55277;BME280;41136;51.478;-2.610;2023-12-20T05:57:44;101356.35;;;7.25;100.00
55277;BME280;41136;51.478;-2.610;2023-12-20T06:00:11;101359.14;;;7.24;100.00
55277;BME280;41136;51.478;-2.610;2023-12-20T06:02:35;101357.70;;;7.64;100.00
55277;BME280;41136;51.478;-2.610;2023-12-20T06:05:00;101356.33;;;7.05;100.00
55277;BME280;41136;51.478;-2.610;2023-12-20T06:07:25;101355.64;;;7.22;100.00
55277;BME280;41136;51.478;-2.610;2023-12-20T06:09:51;101349.83;;;6.93;100.00
55277;BME280;41136;51.478;-2.610;2023-12-20T06:12:16;101349.19;;;7.12;100.00
55277;BME280;41136;51.478;-2.610;2023-12-20T06:14:41;101346.00;;;7.04;100.00
55277;BME280;41136;51.478;-2.610;2023-12-20T06:17:07;101349.10;;;6.58;100.00
55277;BME280;41136;51.478;-2.610;2023-12-20T06:19:32;101352.97;;;6.68;100.00
55277;BME280;41136;51.478;-2.610;2023-12-20T06:21:57;101347.52;;;6.60;100.00
55277;BME280;41136;51.478;-2.610;2023-12-20T06:24:23;101344.36;;;6.53;100.00
55277;BME280;41136;51.478;-2.610;2023-12-20T06:26:48;101349.85;;;6.54;100.00
55277;BME280;41136;51.478;-2.610;2023-12-20T06:29:14;101350.53;;;7.06;100.00
55277;BME280;41136;51.478;-2.610;2023-12-20T06:31:39;101353.23;;;6.62;100.00
55277;BME280;41136;51.478;-2.610;2023-12-20T06:34:04;101359.18;;;6.37;100.00
55277;BME280;41136;51.478;-2.610;2023-12-20T06:36:30;101358.74;;;6.57;100.00
55277;BME280;41136;51.478;-2.610;2023-12-20T06:38:55;101356.96;;;6.50;100.00
55277;BME280;41136;51.478;-2.610;2023-12-20T06:41:21;101360.71;;;6.84;100.00
55277;BME280;41136;51.478;-2.610;2023-12-20T06:43:46;101355.58;;;6.71;100.00
55277;BME280;41136;51.478;-2.610;2023-12-20T06:46:11;101362.81;;;6.85;100.00
55277;BME280;41136;51.478;-2.610;2023-12-20T06:48:37;101366.08;;;6.86;100.00
55277;BME280;41136;51.478;-2.610;2023-12-20T06:51:02;101361.84;;;7.08;100.00
55277;BME280;41136;51.478;-2.610;2023-12-20T06:53:27;101347.73;;;7.18;100.00
55277;BME280;41136;51.478;-2.610;2023-12-20T06:55:53;101348.89;;;6.27;100.00
55277;BME280;41136;51.478;-2.610;2023-12-20T06:58:18;101337.92;;;6.94;100.00
55277;BME280;41136;51.478;-2.610;2023-12-20T07:00:43;101327.40;;;7.59;100.00
55277;BME280;41136;51.478;-2.610;2023-12-20T07:03:09;101322.54;;;7.45;100.00
55277;BME280;41136;51.478;-2.610;2023-12-20T07:05:34;101317.88;;;7.45;100.00
55277;BME280;41136;51.478;-2.610;2023-12-20T07:07:59;101325.38;;;6.98;100.00
55277;BME280;41136;51.478;-2.610;2023-12-20T07:10:25;101322.81;;;6.76;100.00
55277;BME280;41136;51.478;-2.610;2023-12-20T07:12:50;101315.61;;;7.12;100.00
55277;BME280;41136;51.478;-2.610;2023-12-20T07:15:15;101314.91;;;7.68;100.00
55277;BME280;41136;51.478;-2.610;2023-12-20T07:17:41;101309.01;;;7.28;100.00
55277;BME280;41136;51.478;-2.610;2023-12-20T07:20:07;101311.58;;;7.34;100.00
55277;BME280;41136;51.478;-2.610;2023-12-20T07:22:31;101310.45;;;7.47;100.00
55277;BME280;41136;51.478;-2.610;2023-12-20T07:24:57;101313.26;;;7.20;100.00
55277;BME280;41136;51.478;-2.610;2023-12-20T07:27:22;101312.14;;;7.34;100.00
55277;BME280;41136;51.478;-2.610;2023-12-20T07:29:47;101319.72;;;7.31;100.00
55277;BME280;41136;51.478;-2.610;2023-12-20T07:32:13;101314.01;;;6.95;100.00
55277;BME280;41136;51.478;-2.610;2023-12-20T07:34:38;101310.75;;;7.25;100.00
55277;BME280;41136;51.478;-2.610;2023-12-20T07:37:04;101314.30;;;7.19;100.00
55277;BME280;41136;51.478;-2.610;2023-12-20T07:39:29;101318.37;;;7.03;100.00
55277;BME280;41136;51.478;-2.610;2023-12-20T07:41:54;101313.24;;;7.01;100.00
55277;BME280;41136;51.478;-2.610;2023-12-20T07:44:19;101317.18;;;6.99;100.00
55277;BME280;41136;51.478;-2.610;2023-12-20T07:46:45;101321.95;;;7.43;100.00
55277;BME280;41136;51.478;-2.610;2023-12-20T07:49:10;101320.17;;;7.20;100.00
55277;BME280;41136;51.478;-2.610;2023-12-20T07:51:35;101319.94;;;7.58;100.00
55277;BME280;41136;51.478;-2.610;2023-12-20T07:54:01;101318.50;;;7.51;100.00
55277;BME280;41136;51.478;-2.610;2023-12-20T07:56:26;101314.62;;;7.76;100.00
55277;BME280;41136;51.478;-2.610;2023-12-20T07:58:52;101317.62;;;7.49;100.00
55277;BME280;41136;51.478;-2.610;2023-12-20T08:01:17;101323.52;;;7.00;100.00
55277;BME280;41136;51.478;-2.610;2023-12-20T08:03:42;101325.29;;;7.52;100.00
55277;BME280;41136;51.478;-2.610;2023-12-20T08:06:08;101332.42;;;7.70;100.00
55277;BME280;41136;51.478;-2.610;2023-12-20T08:08:33;101343.22;;;7.21;100.00
55277;BME280;41136;51.478;-2.610;2023-12-20T08:10:58;101335.95;;;6.95;100.00
55277;BME280;41136;51.478;-2.610;2023-12-20T08:13:24;101343.21;;;7.38;100.00
55277;BME280;41136;51.478;-2.610;2023-12-20T08:15:49;101346.04;;;7.11;100.00
55277;BME280;41136;51.478;-2.610;2023-12-20T08:18:14;101349.25;;;6.87;100.00
55277;BME280;41136;51.478;-2.610;2023-12-20T08:20:40;101342.92;;;6.84;100.00
55277;BME280;41136;51.478;-2.610;2023-12-20T08:23:05;101352.05;;;7.05;100.00
55277;BME280;41136;51.478;-2.610;2023-12-20T08:25:31;101346.32;;;7.07;100.00
55277;BME280;41136;51.478;-2.610;2023-12-20T08:27:56;101356.73;;;7.22;100.00
55277;BME280;41136;51.478;-2.610;2023-12-20T08:30:21;101355.56;;;6.88;100.00
55277;BME280;41136;51.478;-2.610;2023-12-20T08:32:47;101351.11;;;7.23;100.00
55277;BME280;41136;51.478;-2.610;2023-12-20T08:35:12;101350.85;;;7.04;100.00
55277;BME280;41136;51.478;-2.610;2023-12-20T08:37:37;101351.95;;;7.18;100.00
55277;BME280;41136;51.478;-2.610;2023-12-20T08:40:03;101349.28;;;7.11;100.00
55277;BME280;41136;51.478;-2.610;2023-12-20T08:42:29;101348.90;;;7.16;100.00
55277;BME280;41136;51.478;-2.610;2023-12-20T08:44:53;101357.47;;;7.21;100.00
55277;BME280;41136;51.478;-2.610;2023-12-20T08:47:19;101359.71;;;6.95;100.00
55277;BME280;41136;51.478;-2.610;2023-12-20T08:49:44;101356.64;;;7.03;100.00
55277;BME280;41136;51.478;-2.610;2023-12-20T08:52:09;101362.33;;;7.25;100.00
55277;BME280;41136;51.478;-2.610;2023-12-20T08:54:34;101359.57;;;7.51;100.00
55277;BME280;41136;51.478;-2.610;2023-12-20T08:57:00;101353.18;;;7.77;100.00
55277;BME280;41136;51.478;-2.610;2023-12-20T08:59:25;101357.88;;;7.72;100.00
55277;BME280;41136;51.478;-2.610;2023-12-20T09:01:50;101349.64;;;7.64;100.00
55277;BME280;41136;51.478;-2.610;2023-12-20T09:04:16;101343.44;;;7.95;100.00
55277;BME280;41136;51.478;-2.610;2023-12-20T09:06:41;101337.17;;;7.78;100.00
55277;BME280;41136;51.478;-2.610;2023-12-20T09:09:07;101341.62;;;8.02;100.00
55277;BME280;41136;51.478;-2.610;2023-12-20T09:11:32;101339.99;;;7.33;100.00
55277;BME280;41136;51.478;-2.610;2023-12-20T09:13:57;101334.40;;;7.91;100.00
55277;BME280;41136;51.478;-2.610;2023-12-20T09:16:23;101332.35;;;7.63;100.00
55277;BME280;41136;51.478;-2.610;2023-12-20T09:18:49;101342.07;;;8.06;100.00
55277;BME280;41136;51.478;-2.610;2023-12-20T09:21:14;101334.95;;;7.69;100.00
55277;BME280;41136;51.478;-2.610;2023-12-20T09:23:39;101318.75;;;7.70;100.00
55277;BME280;41136;51.478;-2.610;2023-12-20T09:26:04;101316.60;;;7.81;100.00
55277;BME280;41136;51.478;-2.610;2023-12-20T09:28:30;101312.49;;;7.95;100.00
55277;BME280;41136;51.478;-2.610;2023-12-20T09:30:55;101316.15;;;7.59;100.00
55277;BME280;41136;51.478;-2.610;2023-12-20T09:33:20;101302.45;;;7.73;100.00
55277;BME280;41136;51.478;-2.610;2023-12-20T09:35:46;101296.71;;;7.64;100.00
55277;BME280;41136;51.478;-2.610;2023-12-20T09:38:11;101298.61;;;7.75;100.00
55277;BME280;41136;51.478;-2.610;2023-12-20T09:40:40;101299.07;;;7.24;100.00
55277;BME280;41136;51.478;-2.610;2023-12-20T09:43:04;101310.97;;;7.52;100.00
55277;BME280;41136;51.478;-2.610;2023-12-20T09:45:27;101313.32;;;8.13;100.00
55277;BME280;41136;51.478;-2.610;2023-12-20T09:47:53;101315.06;;;7.51;100.00
55277;BME280;41136;51.478;-2.610;2023-12-20T09:50:18;101315.46;;;7.57;100.00
55277;BME280;41136;51.478;-2.610;2023-12-20T09:52:43;101330.67;;;7.93;100.00
55277;BME280;41136;51.478;-2.610;2023-12-20T09:55:08;101327.90;;;8.34;100.00
55277;BME280;41136;51.478;-2.610;2023-12-20T09:57:34;101322.25;;;8.34;100.00
55277;BME280;41136;51.478;-2.610;2023-12-20T09:59:59;101306.66;;;7.79;100.00
55277;BME280;41136;51.478;-2.610;2023-12-20T10:02:25;101320.18;;;7.89;100.00
55277;BME280;41136;51.478;-2.610;2023-12-20T10:04:50;101328.70;;;8.33;100.00
55277;BME280;41136;51.478;-2.610;2023-12-20T10:07:15;101325.94;;;8.19;100.00
55277;BME280;41136;51.478;-2.610;2023-12-20T10:09:41;101324.36;;;7.48;100.00
55277;BME280;41136;51.478;-2.610;2023-12-20T10:12:06;101323.56;;;7.34;100.00
55277;BME280;41136;51.478;-2.610;2023-12-20T10:14:32;101318.47;;;7.99;100.00
55277;BME280;41136;51.478;-2.610;2023-12-20T10:17:02;101311.97;;;7.90;100.00
55277;BME280;41136;51.478;-2.610;2023-12-20T10:19:22;101314.74;;;8.44;100.00
55277;BME280;41136;51.478;-2.610;2023-12-20T10:21:47;101321.40;;;7.80;100.00
55277;BME280;41136;51.478;-2.610;2023-12-20T10:24:17;101318.46;;;7.34;100.00
55277;BME280;41136;51.478;-2.610;2023-12-20T10:26:38;101325.39;;;7.27;100.00
55277;BME280;41136;51.478;-2.610;2023-12-20T10:29:05;101317.66;;;7.64;100.00
55277;BME280;41136;51.478;-2.610;2023-12-20T10:31:30;101302.48;;;7.70;100.00
55277;BME280;41136;51.478;-2.610;2023-12-20T10:33:56;101295.20;;;7.25;100.00
55277;BME280;41136;51.478;-2.610;2023-12-20T10:36:20;101302.22;;;7.22;100.00
55277;BME280;41136;51.478;-2.610;2023-12-20T10:38:47;101300.39;;;7.47;100.00
55277;BME280;41136;51.478;-2.610;2023-12-20T10:41:12;101291.44;;;7.64;100.00
55277;BME280;41136;51.478;-2.610;2023-12-20T10:43:37;101283.53;;;7.60;100.00
55277;BME280;41136;51.478;-2.610;2023-12-20T10:46:03;101279.87;;;7.21;100.00
55277;BME280;41136;51.478;-2.610;2023-12-20T10:48:27;101267.73;;;7.55;100.00
55277;BME280;41136;51.478;-2.610;2023-12-20T10:50:52;101275.50;;;7.30;100.00
55277;BME280;41136;51.478;-2.610;2023-12-20T10:53:17;101269.49;;;7.31;100.00
55277;BME280;41136;51.478;-2.610;2023-12-20T10:55:43;101258.81;;;7.15;100.00
55277;BME280;41136;51.478;-2.610;2023-12-20T10:58:09;101259.49;;;7.77;100.00
55277;BME280;41136;51.478;-2.610;2023-12-20T11:00:36;101263.53;;;7.61;100.00
55277;BME280;41136;51.478;-2.610;2023-12-20T11:03:01;101262.44;;;7.51;100.00
55277;BME280;41136;51.478;-2.610;2023-12-20T11:05:33;101257.89;;;7.65;100.00
55277;BME280;41136;51.478;-2.610;2023-12-20T11:07:54;101252.19;;;7.62;100.00
55277;BME280;41136;51.478;-2.610;2023-12-20T11:10:19;101252.01;;;8.00;100.00
55277;BME280;41136;51.478;-2.610;2023-12-20T11:12:46;101248.50;;;8.45;100.00
55277;BME280;41136;51.478;-2.610;2023-12-20T11:15:07;101237.29;;;7.98;100.00
55277;BME280;41136;51.478;-2.610;2023-12-20T11:17:32;101238.75;;;8.23;100.00
55277;BME280;41136;51.478;-2.610;2023-12-20T11:20:06;101243.75;;;8.06;100.00
55277;BME280;41136;51.478;-2.610;2023-12-20T11:22:25;101248.67;;;8.54;100.00
55277;BME280;41136;51.478;-2.610;2023-12-20T11:24:49;101234.46;;;8.42;100.00
55277;BME280;41136;51.478;-2.610;2023-12-20T11:27:14;101229.88;;;8.42;100.00
55277;BME280;41136;51.478;-2.610;2023-12-20T11:29:39;101223.20;;;9.00;100.00
55277;BME280;41136;51.478;-2.610;2023-12-20T11:34:32;101219.00;;;8.41;100.00
55277;BME280;41136;51.478;-2.610;2023-12-20T11:36:59;101204.45;;;8.24;100.00
55277;BME280;41136;51.478;-2.610;2023-12-20T11:39:21;101196.44;;;8.63;100.00
55277;BME280;41136;51.478;-2.610;2023-12-20T11:41:46;101188.59;;;8.44;100.00
55277;BME280;41136;51.478;-2.610;2023-12-20T11:44:11;101179.15;;;8.10;100.00
55277;BME280;41136;51.478;-2.610;2023-12-20T11:46:37;101167.12;;;8.45;100.00
55277;BME280;41136;51.478;-2.610;2023-12-20T11:49:02;101156.69;;;8.57;100.00
55277;BME280;41136;51.478;-2.610;2023-12-20T11:51:27;101156.29;;;8.73;100.00
55277;BME280;41136;51.478;-2.610;2023-12-20T11:53:53;101160.61;;;8.15;100.00
55277;BME280;41136;51.478;-2.610;2023-12-20T11:56:18;101160.95;;;8.40;100.00
55277;BME280;41136;51.478;-2.610;2023-12-20T11:58:43;101168.45;;;8.94;100.00
55277;BME280;41136;51.478;-2.610;2023-12-20T12:01:09;101153.88;;;8.02;100.00
55277;BME280;41136;51.478;-2.610;2023-12-20T12:03:34;101142.84;;;8.25;100.00
55277;BME280;41136;51.478;-2.610;2023-12-20T12:05:59;101133.19;;;8.32;100.00
55277;BME280;41136;51.478;-2.610;2023-12-20T12:08:25;101133.66;;;8.09;100.00
55277;BME280;41136;51.478;-2.610;2023-12-20T12:10:50;101114.89;;;8.36;100.00
55277;BME280;41136;51.478;-2.610;2023-12-20T12:13:15;101105.00;;;8.77;100.00
55277;BME280;41136;51.478;-2.610;2023-12-20T12:15:41;101102.80;;;8.34;100.00
55277;BME280;41136;51.478;-2.610;2023-12-20T12:18:07;101105.88;;;8.38;100.00
55277;BME280;41136;51.478;-2.610;2023-12-20T12:20:31;101102.03;;;8.57;100.00
55277;BME280;41136;51.478;-2.610;2023-12-20T12:22:58;101094.69;;;8.61;100.00
55277;BME280;41136;51.478;-2.610;2023-12-20T12:25:22;101091.02;;;8.40;100.00
55277;BME280;41136;51.478;-2.610;2023-12-20T12:27:47;101088.75;;;8.43;100.00
55277;BME280;41136;51.478;-2.610;2023-12-20T12:30:15;101086.44;;;8.85;100.00
55277;BME280;41136;51.478;-2.610;2023-12-20T12:32:38;101090.02;;;8.52;100.00
55277;BME280;41136;51.478;-2.610;2023-12-20T12:35:04;101080.82;;;8.69;100.00
55277;BME280;41136;51.478;-2.610;2023-12-20T12:37:29;101082.30;;;8.75;100.00
55277;BME280;41136;51.478;-2.610;2023-12-20T12:39:54;101095.56;;;8.51;100.00